sensor_id;sensor_type;location;lat;lon;timestamp;P1;durP1;ratioP1;P2;durP2;ratioP2
36855;SDS011;22788;51.434;6.786;2022-09-09T00:01:58;3.70;;;1.00;;
36855;SDS011;22788;51.434;6.786;2022-09-09T00:04:26;1.88;;;1.05;;
36855;SDS011;22788;51.434;6.786;2022-09-09T00:06:57;1.40;;;1.00;;
36855;SDS011;22788;51.434;6.786;2022-09-09T00:09:27;2.00;;;1.05;;
36855;SDS011;22788;51.434;6.786;2022-09-09T00:11:54;1.50;;;0.82;;
36855;SDS011;22788;51.434;6.786;2022-09-09T00:14:24;1.35;;;1.13;;
36855;SDS011;22788;51.434;6.786;2022-09-09T00:16:53;1.95;;;1.00;;
36855;SDS011;22788;51.434;6.786;2022-09-09T00:19:22;1.63;;;0.90;;
36855;SDS011;22788;51.434;6.786;2022-09-09T00:21:51;4.38;;;1.08;;
36855;SDS011;22788;51.434;6.786;2022-09-09T00:24:24;1.88;;;1.00;;
36855;SDS011;22788;51.434;6.786;2022-09-09T00:26:53;1.33;;;0.90;;
36855;SDS011;22788;51.434;6.786;2022-09-09T00:29:22;1.10;;;0.80;;
36855;SDS011;22788;51.434;6.786;2022-09-09T00:31:53;1.42;;;0.90;;
36855;SDS011;22788;51.434;6.786;2022-09-09T00:34:20;1.25;;;0.77;;
36855;SDS011;22788;51.434;6.786;2022-09-09T00:36:47;4.03;;;0.95;;
36855;SDS011;22788;51.434;6.786;2022-09-09T00:39:23;1.58;;;0.90;;
36855;SDS011;22788;51.434;6.786;2022-09-09T00:41:55;2.78;;;1.05;;
36855;SDS011;22788;51.434;6.786;2022-09-09T00:44:25;3.55;;;0.80;;
36855;SDS011;22788;51.434;6.786;2022-09-09T00:46:56;2.28;;;1.00;;
36855;SDS011;22788;51.434;6.786;2022-09-09T00:49:28;2.20;;;0.80;;
36855;SDS011;22788;51.434;6.786;2022-09-09T00:51:59;1.92;;;1.10;;
36855;SDS011;22788;51.434;6.786;2022-09-09T00:54:32;1.63;;;0.70;;
36855;SDS011;22788;51.434;6.786;2022-09-09T00:57:05;1.55;;;0.65;;
36855;SDS011;22788;51.434;6.786;2022-09-09T00:59:35;1.35;;;0.73;;
36855;SDS011;22788;51.434;6.786;2022-09-09T01:02:04;2.10;;;0.98;;
36855;SDS011;22788;51.434;6.786;2022-09-09T01:04:34;2.78;;;1.10;;
36855;SDS011;22788;51.434;6.786;2022-09-09T01:07:03;0.95;;;0.70;;
36855;SDS011;22788;51.434;6.786;2022-09-09T01:09:32;1.85;;;0.90;;
36855;SDS011;22788;51.434;6.786;2022-09-09T01:12:07;2.67;;;0.70;;
36855;SDS011;22788;51.434;6.786;2022-09-09T01:14:38;4.60;;;1.05;;
36855;SDS011;22788;51.434;6.786;2022-09-09T01:17:07;1.08;;;0.90;;
36855;SDS011;22788;51.434;6.786;2022-09-09T01:19:37;1.67;;;0.90;;
36855;SDS011;22788;51.434;6.786;2022-09-09T01:22:08;1.02;;;0.90;;
36855;SDS011;22788;51.434;6.786;2022-09-09T01:24:38;2.53;;;0.82;;
36855;SDS011;22788;51.434;6.786;2022-09-09T01:27:06;1.35;;;0.93;;
36855;SDS011;22788;51.434;6.786;2022-09-09T01:29:33;2.30;;;0.82;;
36855;SDS011;22788;51.434;6.786;2022-09-09T01:32:00;1.52;;;0.90;;
36855;SDS011;22788;51.434;6.786;2022-09-09T01:34:28;1.02;;;0.75;;
36855;SDS011;22788;51.434;6.786;2022-09-09T01:36:57;2.40;;;0.77;;
36855;SDS011;22788;51.434;6.786;2022-09-09T01:39:24;0.80;;;0.80;;
36855;SDS011;22788;51.434;6.786;2022-09-09T01:41:50;1.77;;;0.80;;
36855;SDS011;22788;51.434;6.786;2022-09-09T01:44:18;4.85;;;0.68;;
36855;SDS011;22788;51.434;6.786;2022-09-09T01:46:45;2.38;;;0.80;;
36855;SDS011;22788;51.434;6.786;2022-09-09T01:49:11;0.90;;;0.70;;
36855;SDS011;22788;51.434;6.786;2022-09-09T01:51:38;2.90;;;0.93;;
36855;SDS011;22788;51.434;6.786;2022-09-09T01:54:04;2.70;;;0.90;;
36855;SDS011;22788;51.434;6.786;2022-09-09T01:56:35;1.52;;;0.70;;
36855;SDS011;22788;51.434;6.786;2022-09-09T01:59:07;1.30;;;0.73;;
36855;SDS011;22788;51.434;6.786;2022-09-09T02:01:42;1.23;;;0.80;;
36855;SDS011;22788;51.434;6.786;2022-09-09T02:04:15;1.77;;;0.93;;
36855;SDS011;22788;51.434;6.786;2022-09-09T02:06:44;0.80;;;0.80;;
36855;SDS011;22788;51.434;6.786;2022-09-09T02:09:11;1.27;;;0.82;;
36855;SDS011;22788;51.434;6.786;2022-09-09T02:11:38;1.23;;;0.80;;
36855;SDS011;22788;51.434;6.786;2022-09-09T02:14:06;2.13;;;0.90;;
36855;SDS011;22788;51.434;6.786;2022-09-09T02:16:35;0.80;;;0.80;;
36855;SDS011;22788;51.434;6.786;2022-09-09T02:19:06;2.03;;;0.90;;
36855;SDS011;22788;51.434;6.786;2022-09-09T02:21:34;1.45;;;0.80;;
36855;SDS011;22788;51.434;6.786;2022-09-09T02:24:02;2.40;;;0.95;;
36855;SDS011;22788;51.434;6.786;2022-09-09T02:26:29;1.10;;;0.80;;
36855;SDS011;22788;51.434;6.786;2022-09-09T02:28:57;1.15;;;;;
36855;SDS011;22788;51.434;6.786;2022-09-09T02:31:40;0.80;;;0.75;;
36855;SDS011;22788;51.434;6.786;2022-09-09T02:34:08;2.75;;;0.98;;
36855;SDS011;22788;51.434;6.786;2022-09-09T02:36:35;1.05;;;0.70;;
36855;SDS011;22788;51.434;6.786;2022-09-09T02:39:02;2.35;;;0.98;;
36855;SDS011;22788;51.434;6.786;2022-09-09T02:41:31;2.80;;;0.80;;
36855;SDS011;22788;51.434;6.786;2022-09-09T02:43:58;2.38;;;1.00;;
36855;SDS011;22788;51.434;6.786;2022-09-09T02:46:27;1.48;;;0.98;;
36855;SDS011;22788;51.434;6.786;2022-09-09T02:48:58;1.10;;;0.90;;
36855;SDS011;22788;51.434;6.786;2022-09-09T02:51:28;1.27;;;0.98;;
36855;SDS011;22788;51.434;6.786;2022-09-09T02:53:59;1.08;;;0.80;;
36855;SDS011;22788;51.434;6.786;2022-09-09T02:56:30;1.00;;;0.60;;
36855;SDS011;22788;51.434;6.786;2022-09-09T02:58:58;3.55;;;0.80;;
36855;SDS011;22788;51.434;6.786;2022-09-09T03:01:25;1.80;;;0.90;;
36855;SDS011;22788;51.434;6.786;2022-09-09T03:03:51;1.15;;;0.80;;
36855;SDS011;22788;51.434;6.786;2022-09-09T03:06:17;3.10;;;0.90;;
36855;SDS011;22788;51.434;6.786;2022-09-09T03:08:45;0.98;;;0.80;;
36855;SDS011;22788;51.434;6.786;2022-09-09T03:11:11;1.33;;;0.82;;
36855;SDS011;22788;51.434;6.786;2022-09-09T03:13:38;1.33;;;0.80;;
36855;SDS011;22788;51.434;6.786;2022-09-09T03:16:04;2.13;;;0.88;;
36855;SDS011;22788;51.434;6.786;2022-09-09T03:18:31;1.73;;;0.80;;
36855;SDS011;22788;51.434;6.786;2022-09-09T03:20:57;2.05;;;0.88;;
36855;SDS011;22788;51.434;6.786;2022-09-09T03:23:23;1.65;;;0.90;;
36855;SDS011;22788;51.434;6.786;2022-09-09T03:25:51;3.70;;;1.05;;
36855;SDS011;22788;51.434;6.786;2022-09-09T03:28:18;1.85;;;0.80;;
36855;SDS011;22788;51.434;6.786;2022-09-09T03:30:44;2.15;;;1.02;;
36855;SDS011;22788;51.434;6.786;2022-09-09T03:33:11;2.08;;;1.00;;
36855;SDS011;22788;51.434;6.786;2022-09-09T03:35:37;1.92;;;1.02;;
36855;SDS011;22788;51.434;6.786;2022-09-09T03:38:03;1.98;;;1.15;;
36855;SDS011;22788;51.434;6.786;2022-09-09T03:40:29;3.58;;;0.80;;
36855;SDS011;22788;51.434;6.786;2022-09-09T03:42:57;1.35;;;0.80;;
36855;SDS011;22788;51.434;6.786;2022-09-09T03:45:23;1.52;;;0.90;;
36855;SDS011;22788;51.434;6.786;2022-09-09T03:47:50;2.55;;;1.20;;
36855;SDS011;22788;51.434;6.786;2022-09-09T03:50:16;2.17;;;1.10;;
36855;SDS011;22788;51.434;6.786;2022-09-09T03:52:42;3.78;;;0.95;;
36855;SDS011;22788;51.434;6.786;2022-09-09T03:55:09;1.90;;;1.10;;
36855;SDS011;22788;51.434;6.786;2022-09-09T03:57:35;1.70;;;1.10;;
36855;SDS011;22788;51.434;6.786;2022-09-09T04:00:03;2.85;;;1.40;;
36855;SDS011;22788;51.434;6.786;2022-09-09T04:02:30;1.75;;;1.00;;
36855;SDS011;22788;51.434;6.786;2022-09-09T04:04:56;2.22;;;1.10;;
36855;SDS011;22788;51.434;6.786;2022-09-09T04:07:23;1.42;;;0.93;;
36855;SDS011;22788;51.434;6.786;2022-09-09T04:09:49;1.13;;;0.80;;
36855;SDS011;22788;51.434;6.786;2022-09-09T04:12:15;3.03;;;1.13;;
36855;SDS011;22788;51.434;6.786;2022-09-09T04:14:41;1.77;;;1.10;;
36855;SDS011;22788;51.434;6.786;2022-09-09T04:17:09;2.33;;;1.10;;
36855;SDS011;22788;51.434;6.786;2022-09-09T04:19:36;2.50;;;1.00;;
36855;SDS011;22788;51.434;6.786;2022-09-09T04:22:02;1.85;;;1.02;;
36855;SDS011;22788;51.434;6.786;2022-09-09T04:24:28;2.22;;;0.98;;
36855;SDS011;22788;51.434;6.786;2022-09-09T04:26:54;2.78;;;1.10;;
36855;SDS011;22788;51.434;6.786;2022-09-09T04:29:21;1.70;;;1.33;;
36855;SDS011;22788;51.434;6.786;2022-09-09T04:31:47;1.27;;;1.08;;
36855;SDS011;22788;51.434;6.786;2022-09-09T04:34:15;3.25;;;1.40;;
36855;SDS011;22788;51.434;6.786;2022-09-09T04:36:41;1.85;;;1.10;;
36855;SDS011;22788;51.434;6.786;2022-09-09T04:39:07;2.60;;;1.15;;
36855;SDS011;22788;51.434;6.786;2022-09-09T04:41:34;1.52;;;0.98;;
36855;SDS011;22788;51.434;6.786;2022-09-09T04:44:00;3.08;;;1.00;;
36855;SDS011;22788;51.434;6.786;2022-09-09T04:46:26;4.18;;;1.00;;
36855;SDS011;22788;51.434;6.786;2022-09-09T04:48:53;1.90;;;1.15;;
36855;SDS011;22788;51.434;6.786;2022-09-09T04:51:21;1.42;;;1.00;;
36855;SDS011;22788;51.434;6.786;2022-09-09T04:53:47;2.08;;;1.30;;
36855;SDS011;22788;51.434;6.786;2022-09-09T04:56:14;2.55;;;1.10;;
36855;SDS011;22788;51.434;6.786;2022-09-09T04:58:41;1.90;;;1.20;;
36855;SDS011;22788;51.434;6.786;2022-09-09T05:01:08;1.45;;;1.02;;
36855;SDS011;22788;51.434;6.786;2022-09-09T05:03:35;1.50;;;1.40;;
36855;SDS011;22788;51.434;6.786;2022-09-09T05:06:05;1.70;;;1.20;;
36855;SDS011;22788;51.434;6.786;2022-09-09T05:08:33;3.22;;;1.10;;
36855;SDS011;22788;51.434;6.786;2022-09-09T05:10:59;3.17;;;1.52;;
36855;SDS011;22788;51.434;6.786;2022-09-09T05:13:26;3.13;;;1.15;;
36855;SDS011;22788;51.434;6.786;2022-09-09T05:15:52;1.65;;;1.10;;
36855;SDS011;22788;51.434;6.786;2022-09-09T05:18:18;1.88;;;1.15;;
36855;SDS011;22788;51.434;6.786;2022-09-09T05:20:45;2.17;;;1.20;;
36855;SDS011;22788;51.434;6.786;2022-09-09T05:23:11;2.40;;;1.23;;
36855;SDS011;22788;51.434;6.786;2022-09-09T05:25:39;0.95;;;0.85;;
36855;SDS011;22788;51.434;6.786;2022-09-09T05:28:05;2.15;;;1.25;;
36855;SDS011;22788;51.434;6.786;2022-09-09T05:30:32;5.03;;;1.35;;
36855;SDS011;22788;51.434;6.786;2022-09-09T05:32:58;4.00;;;1.17;;
36855;SDS011;22788;51.434;6.786;2022-09-09T05:35:24;2.53;;;1.10;;
36855;SDS011;22788;51.434;6.786;2022-09-09T05:37:51;3.03;;;1.30;;
36855;SDS011;22788;51.434;6.786;2022-09-09T05:40:17;4.13;;;1.65;;
36855;SDS011;22788;51.434;6.786;2022-09-09T05:42:45;6.82;;;2.10;;
36855;SDS011;22788;51.434;6.786;2022-09-09T05:45:11;4.60;;;2.00;;
36855;SDS011;22788;51.434;6.786;2022-09-09T05:47:37;4.00;;;1.80;;
36855;SDS011;22788;51.434;6.786;2022-09-09T05:50:04;5.43;;;1.95;;
36855;SDS011;22788;51.434;6.786;2022-09-09T05:52:30;3.65;;;1.70;;
36855;SDS011;22788;51.434;6.786;2022-09-09T05:54:56;7.95;;;1.95;;
36855;SDS011;22788;51.434;6.786;2022-09-09T05:57:23;4.32;;;1.65;;
36855;SDS011;22788;51.434;6.786;2022-09-09T05:59:50;4.15;;;1.70;;
36855;SDS011;22788;51.434;6.786;2022-09-09T06:02:17;5.60;;;1.92;;
36855;SDS011;22788;51.434;6.786;2022-09-09T06:04:43;4.13;;;1.50;;
36855;SDS011;22788;51.434;6.786;2022-09-09T06:07:09;3.60;;;1.50;;
36855;SDS011;22788;51.434;6.786;2022-09-09T06:09:36;6.57;;;1.88;;
36855;SDS011;22788;51.434;6.786;2022-09-09T06:12:02;3.08;;;1.73;;
36855;SDS011;22788;51.434;6.786;2022-09-09T06:14:28;5.18;;;2.00;;
36855;SDS011;22788;51.434;6.786;2022-09-09T06:16:56;5.32;;;1.60;;
36855;SDS011;22788;51.434;6.786;2022-09-09T06:19:22;3.50;;;1.40;;
36855;SDS011;22788;51.434;6.786;2022-09-09T06:21:49;3.08;;;1.60;;
36855;SDS011;22788;51.434;6.786;2022-09-09T06:24:15;4.68;;;1.80;;
36855;SDS011;22788;51.434;6.786;2022-09-09T06:26:41;3.65;;;1.70;;
36855;SDS011;22788;51.434;6.786;2022-09-09T06:29:08;2.67;;;1.60;;
36855;SDS011;22788;51.434;6.786;2022-09-09T06:31:34;4.30;;;1.63;;
36855;SDS011;22788;51.434;6.786;2022-09-09T06:34:03;3.83;;;2.03;;
36855;SDS011;22788;51.434;6.786;2022-09-09T06:36:31;2.00;;;1.13;;
36855;SDS011;22788;51.434;6.786;2022-09-09T06:38:57;3.58;;;1.75;;
36855;SDS011;22788;51.434;6.786;2022-09-09T06:41:24;3.42;;;1.30;;
36855;SDS011;22788;51.434;6.786;2022-09-09T06:43:51;3.47;;;2.00;;
36855;SDS011;22788;51.434;6.786;2022-09-09T06:46:20;4.07;;;1.45;;
36855;SDS011;22788;51.434;6.786;2022-09-09T06:48:46;3.67;;;1.40;;
36855;SDS011;22788;51.434;6.786;2022-09-09T06:51:15;2.47;;;1.40;;
36855;SDS011;22788;51.434;6.786;2022-09-09T06:53:42;4.10;;;1.45;;
36855;SDS011;22788;51.434;6.786;2022-09-09T06:56:17;1.63;;;1.38;;
36855;SDS011;22788;51.434;6.786;2022-09-09T06:58:44;2.38;;;1.50;;
36855;SDS011;22788;51.434;6.786;2022-09-09T07:01:11;3.20;;;1.48;;
36855;SDS011;22788;51.434;6.786;2022-09-09T07:03:37;3.55;;;1.50;;
36855;SDS011;22788;51.434;6.786;2022-09-09T07:06:04;3.63;;;1.52;;
36855;SDS011;22788;51.434;6.786;2022-09-09T07:08:32;3.28;;;1.38;;
36855;SDS011;22788;51.434;6.786;2022-09-09T07:11:01;5.15;;;1.55;;
36855;SDS011;22788;51.434;6.786;2022-09-09T07:13:28;5.38;;;1.65;;
36855;SDS011;22788;51.434;6.786;2022-09-09T07:15:54;2.53;;;1.70;;
36855;SDS011;22788;51.434;6.786;2022-09-09T07:18:20;1.52;;;1.42;;
36855;SDS011;22788;51.434;6.786;2022-09-09T07:20:52;3.50;;;1.50;;
36855;SDS011;22788;51.434;6.786;2022-09-09T07:23:19;4.13;;;1.50;;
36855;SDS011;22788;51.434;6.786;2022-09-09T07:25:46;4.13;;;1.80;;
36855;SDS011;22788;51.434;6.786;2022-09-09T07:28:13;1.83;;;1.30;;
36855;SDS011;22788;51.434;6.786;2022-09-09T07:30:40;2.92;;;1.50;;
36855;SDS011;22788;51.434;6.786;2022-09-09T07:33:06;3.58;;;1.52;;
36855;SDS011;22788;51.434;6.786;2022-09-09T07:35:33;5.60;;;1.83;;
36855;SDS011;22788;51.434;6.786;2022-09-09T07:38:00;2.30;;;1.30;;
36855;SDS011;22788;51.434;6.786;2022-09-09T07:40:27;2.95;;;1.63;;
36855;SDS011;22788;51.434;6.786;2022-09-09T07:42:54;4.75;;;1.50;;
36855;SDS011;22788;51.434;6.786;2022-09-09T07:45:20;3.95;;;2.05;;
36855;SDS011;22788;51.434;6.786;2022-09-09T07:47:47;5.15;;;1.45;;
36855;SDS011;22788;51.434;6.786;2022-09-09T07:50:13;4.72;;;1.60;;
36855;SDS011;22788;51.434;6.786;2022-09-09T07:52:39;5.07;;;1.73;;
36855;SDS011;22788;51.434;6.786;2022-09-09T07:55:06;2.03;;;1.40;;
36855;SDS011;22788;51.434;6.786;2022-09-09T07:57:32;3.90;;;1.15;;
36855;SDS011;22788;51.434;6.786;2022-09-09T08:00:00;5.38;;;1.70;;
36855;SDS011;22788;51.434;6.786;2022-09-09T08:02:26;4.03;;;1.55;;
36855;SDS011;22788;51.434;6.786;2022-09-09T08:04:53;3.10;;;1.15;;
36855;SDS011;22788;51.434;6.786;2022-09-09T08:07:19;4.07;;;1.60;;
36855;SDS011;22788;51.434;6.786;2022-09-09T08:09:45;3.08;;;1.42;;
36855;SDS011;22788;51.434;6.786;2022-09-09T08:12:11;4.10;;;1.65;;
36855;SDS011;22788;51.434;6.786;2022-09-09T08:14:38;4.35;;;1.70;;
36855;SDS011;22788;51.434;6.786;2022-09-09T08:17:05;4.80;;;1.85;;
36855;SDS011;22788;51.434;6.786;2022-09-09T08:19:32;5.25;;;1.98;;
36855;SDS011;22788;51.434;6.786;2022-09-09T08:21:58;11.25;;;2.42;;
36855;SDS011;22788;51.434;6.786;2022-09-09T08:24:24;11.00;;;2.25;;
36855;SDS011;22788;51.434;6.786;2022-09-09T08:26:50;6.07;;;2.10;;
36855;SDS011;22788;51.434;6.786;2022-09-09T08:29:16;6.75;;;1.75;;
36855;SDS011;22788;51.434;6.786;2022-09-09T08:31:44;6.22;;;1.92;;
36855;SDS011;22788;51.434;6.786;2022-09-09T08:34:12;10.13;;;2.25;;
36855;SDS011;22788;51.434;6.786;2022-09-09T08:36:40;3.60;;;1.73;;
36855;SDS011;22788;51.434;6.786;2022-09-09T08:39:07;6.35;;;1.80;;
36855;SDS011;22788;51.434;6.786;2022-09-09T08:44:22;3.80;;;1.63;;
36855;SDS011;22788;51.434;6.786;2022-09-09T08:46:56;9.05;;;1.80;;
36855;SDS011;22788;51.434;6.786;2022-09-09T08:52:40;5.43;;;1.52;;
36855;SDS011;22788;51.434;6.786;2022-09-09T08:55:20;4.75;;;1.50;;
36855;SDS011;22788;51.434;6.786;2022-09-09T08:57:49;6.63;;;1.88;;
36855;SDS011;22788;51.434;6.786;2022-09-09T09:00:18;3.60;;;1.70;;
36855;SDS011;22788;51.434;6.786;2022-09-09T09:02:46;9.45;;;2.20;;
36855;SDS011;22788;51.434;6.786;2022-09-09T09:05:22;4.35;;;1.80;;
36855;SDS011;22788;51.434;6.786;2022-09-09T09:07:58;3.25;;;1.35;;
36855;SDS011;22788;51.434;6.786;2022-09-09T09:10:33;5.47;;;1.45;;
36855;SDS011;22788;51.434;6.786;2022-09-09T09:13:06;4.97;;;1.85;;
36855;SDS011;22788;51.434;6.786;2022-09-09T09:15:37;4.97;;;1.42;;
36855;SDS011;22788;51.434;6.786;2022-09-09T09:18:04;8.20;;;2.00;;
36855;SDS011;22788;51.434;6.786;2022-09-09T09:20:32;2.42;;;1.25;;
36855;SDS011;22788;51.434;6.786;2022-09-09T09:23:12;4.78;;;1.70;;
36855;SDS011;22788;51.434;6.786;2022-09-09T09:25:46;3.90;;;1.30;;
36855;SDS011;22788;51.434;6.786;2022-09-09T09:28:13;4.07;;;1.83;;
36855;SDS011;22788;51.434;6.786;2022-09-09T09:30:42;5.75;;;1.48;;
36855;SDS011;22788;51.434;6.786;2022-09-09T09:33:15;4.32;;;1.52;;
36855;SDS011;22788;51.434;6.786;2022-09-09T09:35:44;5.05;;;1.80;;
36855;SDS011;22788;51.434;6.786;2022-09-09T09:38:15;4.88;;;1.63;;
36855;SDS011;22788;51.434;6.786;2022-09-09T09:40:47;3.60;;;1.38;;
36855;SDS011;22788;51.434;6.786;2022-09-09T09:43:17;3.78;;;1.33;;
36855;SDS011;22788;51.434;6.786;2022-09-09T09:45:47;5.60;;;1.70;;
36855;SDS011;22788;51.434;6.786;2022-09-09T09:48:13;3.97;;;1.52;;
36855;SDS011;22788;51.434;6.786;2022-09-09T09:50:46;4.20;;;1.75;;
36855;SDS011;22788;51.434;6.786;2022-09-09T09:53:18;4.60;;;1.67;;
36855;SDS011;22788;51.434;6.786;2022-09-09T09:55:49;4.38;;;1.63;;
36855;SDS011;22788;51.434;6.786;2022-09-09T09:58:18;3.03;;;1.40;;
36855;SDS011;22788;51.434;6.786;2022-09-09T10:00:47;4.05;;;1.98;;
36855;SDS011;22788;51.434;6.786;2022-09-09T10:03:18;3.85;;;1.17;;
36855;SDS011;22788;51.434;6.786;2022-09-09T10:05:50;7.85;;;1.95;;
36855;SDS011;22788;51.434;6.786;2022-09-09T10:08:18;2.78;;;1.30;;
36855;SDS011;22788;51.434;6.786;2022-09-09T10:10:59;3.08;;;1.25;;
36855;SDS011;22788;51.434;6.786;2022-09-09T10:13:35;5.82;;;1.42;;
36855;SDS011;22788;51.434;6.786;2022-09-09T10:16:14;3.33;;;1.67;;
36855;SDS011;22788;51.434;6.786;2022-09-09T10:18:59;2.55;;;1.45;;
36855;SDS011;22788;51.434;6.786;2022-09-09T10:21:36;4.32;;;1.38;;
36855;SDS011;22788;51.434;6.786;2022-09-09T10:24:28;2.08;;;1.30;;
36855;SDS011;22788;51.434;6.786;2022-09-09T10:27:05;3.92;;;1.65;;
36855;SDS011;22788;51.434;6.786;2022-09-09T10:29:47;2.55;;;1.27;;
36855;SDS011;22788;51.434;6.786;2022-09-09T10:32:35;2.67;;;1.25;;
36855;SDS011;22788;51.434;6.786;2022-09-09T10:35:04;3.30;;;1.30;;
36855;SDS011;22788;51.434;6.786;2022-09-09T10:37:41;3.05;;;1.15;;
36855;SDS011;22788;51.434;6.786;2022-09-09T10:40:31;1.85;;;1.20;;
36855;SDS011;22788;51.434;6.786;2022-09-09T10:43:01;2.05;;;1.33;;
36855;SDS011;22788;51.434;6.786;2022-09-09T10:45:40;2.45;;;1.48;;
36855;SDS011;22788;51.434;6.786;2022-09-09T10:48:16;3.38;;;1.33;;
36855;SDS011;22788;51.434;6.786;2022-09-09T10:50:55;2.00;;;1.30;;
36855;SDS011;22788;51.434;6.786;2022-09-09T10:53:35;4.35;;;1.40;;
36855;SDS011;22788;51.434;6.786;2022-09-09T10:56:08;2.53;;;1.30;;
36855;SDS011;22788;51.434;6.786;2022-09-09T10:58:38;2.85;;;1.33;;
36855;SDS011;22788;51.434;6.786;2022-09-09T11:01:10;2.80;;;1.30;;
36855;SDS011;22788;51.434;6.786;2022-09-09T11:03:40;2.08;;;0.93;;
36855;SDS011;22788;51.434;6.786;2022-09-09T11:06:09;3.35;;;1.30;;
36855;SDS011;22788;51.434;6.786;2022-09-09T11:08:39;1.05;;;0.95;;
36855;SDS011;22788;51.434;6.786;2022-09-09T11:11:09;3.33;;;1.20;;
36855;SDS011;22788;51.434;6.786;2022-09-09T11:13:40;5.00;;;1.52;;
36855;SDS011;22788;51.434;6.786;2022-09-09T11:16:15;2.60;;;1.38;;
36855;SDS011;22788;51.434;6.786;2022-09-09T11:18:47;1.42;;;1.10;;
36855;SDS011;22788;51.434;6.786;2022-09-09T11:21:15;2.20;;;1.33;;
36855;SDS011;22788;51.434;6.786;2022-09-09T11:23:48;3.45;;;1.30;;
36855;SDS011;22788;51.434;6.786;2022-09-09T11:26:21;2.15;;;1.13;;
36855;SDS011;22788;51.434;6.786;2022-09-09T11:28:56;2.38;;;1.27;;
36855;SDS011;22788;51.434;6.786;2022-09-09T11:31:38;3.75;;;1.55;;
36855;SDS011;22788;51.434;6.786;2022-09-09T11:37:08;4.47;;;0.95;;
36855;SDS011;22788;51.434;6.786;2022-09-09T11:39:51;2.88;;;1.17;;
36855;SDS011;22788;51.434;6.786;2022-09-09T11:42:34;4.13;;;1.13;;
36855;SDS011;22788;51.434;6.786;2022-09-09T11:45:08;2.85;;;1.42;;
36855;SDS011;22788;51.434;6.786;2022-09-09T11:47:35;5.50;;;1.10;;
36855;SDS011;22788;51.434;6.786;2022-09-09T11:50:09;3.10;;;1.30;;
36855;SDS011;22788;51.434;6.786;2022-09-09T11:52:36;1.80;;;1.23;;
36855;SDS011;22788;51.434;6.786;2022-09-09T11:55:08;3.85;;;1.10;;
36855;SDS011;22788;51.434;6.786;2022-09-09T11:57:37;2.33;;;0.90;;
36855;SDS011;22788;51.434;6.786;2022-09-09T12:00:04;1.70;;;1.20;;
36855;SDS011;22788;51.434;6.786;2022-09-09T12:02:31;2.17;;;0.98;;
36855;SDS011;22788;51.434;6.786;2022-09-09T12:04:58;4.38;;;1.38;;
36855;SDS011;22788;51.434;6.786;2022-09-09T12:07:30;1.80;;;1.10;;
36855;SDS011;22788;51.434;6.786;2022-09-09T12:10:02;1.92;;;0.95;;
36855;SDS011;22788;51.434;6.786;2022-09-09T12:12:46;2.92;;;1.10;;
36855;SDS011;22788;51.434;6.786;2022-09-09T12:15:23;1.38;;;0.90;;
36855;SDS011;22788;51.434;6.786;2022-09-09T12:17:52;2.63;;;1.23;;
36855;SDS011;22788;51.434;6.786;2022-09-09T12:20:20;3.40;;;1.10;;
36855;SDS011;22788;51.434;6.786;2022-09-09T12:23:00;2.47;;;1.30;;
36855;SDS011;22788;51.434;6.786;2022-09-09T12:25:44;3.85;;;1.30;;
36855;SDS011;22788;51.434;6.786;2022-09-09T12:31:21;1.75;;;1.17;;
36855;SDS011;22788;51.434;6.786;2022-09-09T12:33:51;1.88;;;0.90;;
36855;SDS011;22788;51.434;6.786;2022-09-09T12:36:18;2.70;;;1.20;;
36855;SDS011;22788;51.434;6.786;2022-09-09T12:38:47;2.92;;;1.00;;
36855;SDS011;22788;51.434;6.786;2022-09-09T12:41:18;1.92;;;1.00;;
36855;SDS011;22788;51.434;6.786;2022-09-09T12:43:45;2.80;;;1.00;;
36855;SDS011;22788;51.434;6.786;2022-09-09T12:46:14;2.85;;;1.17;;
36855;SDS011;22788;51.434;6.786;2022-09-09T12:48:48;3.17;;;0.95;;
36855;SDS011;22788;51.434;6.786;2022-09-09T12:51:17;4.25;;;1.30;;
36855;SDS011;22788;51.434;6.786;2022-09-09T12:53:46;2.75;;;1.20;;
36855;SDS011;22788;51.434;6.786;2022-09-09T12:56:18;1.98;;;1.00;;
36855;SDS011;22788;51.434;6.786;2022-09-09T12:58:46;4.85;;;1.65;;
36855;SDS011;22788;51.434;6.786;2022-09-09T13:01:20;3.38;;;1.27;;
36855;SDS011;22788;51.434;6.786;2022-09-09T13:03:48;3.92;;;1.30;;
36855;SDS011;22788;51.434;6.786;2022-09-09T13:06:18;2.30;;;1.27;;
36855;SDS011;22788;51.434;6.786;2022-09-09T13:08:46;3.80;;;1.00;;
36855;SDS011;22788;51.434;6.786;2022-09-09T13:11:13;3.78;;;1.30;;
36855;SDS011;22788;51.434;6.786;2022-09-09T13:13:42;2.35;;;1.08;;
36855;SDS011;22788;51.434;6.786;2022-09-09T13:16:21;2.15;;;1.20;;
36855;SDS011;22788;51.434;6.786;2022-09-09T13:18:50;2.85;;;1.40;;
36855;SDS011;22788;51.434;6.786;2022-09-09T13:21:17;2.83;;;1.40;;
36855;SDS011;22788;51.434;6.786;2022-09-09T13:23:47;3.10;;;1.65;;
36855;SDS011;22788;51.434;6.786;2022-09-09T13:26:21;2.63;;;1.25;;
36855;SDS011;22788;51.434;6.786;2022-09-09T13:28:49;3.47;;;1.35;;
36855;SDS011;22788;51.434;6.786;2022-09-09T13:31:21;3.85;;;1.80;;
36855;SDS011;22788;51.434;6.786;2022-09-09T13:33:48;2.72;;;1.88;;
36855;SDS011;22788;51.434;6.786;2022-09-09T13:36:14;4.97;;;1.60;;
36855;SDS011;22788;51.434;6.786;2022-09-09T13:38:52;3.72;;;1.33;;
36855;SDS011;22788;51.434;6.786;2022-09-09T13:41:19;5.07;;;1.92;;
36855;SDS011;22788;51.434;6.786;2022-09-09T13:43:47;3.22;;;1.65;;
36855;SDS011;22788;51.434;6.786;2022-09-09T13:46:29;2.42;;;1.75;;
36855;SDS011;22788;51.434;6.786;2022-09-09T13:48:59;3.08;;;1.50;;
36855;SDS011;22788;51.434;6.786;2022-09-09T13:51:33;3.25;;;1.98;;
36855;SDS011;22788;51.434;6.786;2022-09-09T13:54:00;3.05;;;1.73;;
36855;SDS011;22788;51.434;6.786;2022-09-09T13:56:26;2.90;;;1.58;;
36855;SDS011;22788;51.434;6.786;2022-09-09T13:58:52;3.33;;;1.55;;
36855;SDS011;22788;51.434;6.786;2022-09-09T14:01:18;3.55;;;1.90;;
36855;SDS011;22788;51.434;6.786;2022-09-09T14:03:46;2.83;;;1.75;;
36855;SDS011;22788;51.434;6.786;2022-09-09T14:06:12;3.83;;;1.58;;
36855;SDS011;22788;51.434;6.786;2022-09-09T14:08:38;3.40;;;1.42;;
36855;SDS011;22788;51.434;6.786;2022-09-09T14:11:04;2.95;;;1.75;;
36855;SDS011;22788;51.434;6.786;2022-09-09T14:13:30;2.60;;;1.40;;
36855;SDS011;22788;51.434;6.786;2022-09-09T14:15:56;2.17;;;1.52;;
36855;SDS011;22788;51.434;6.786;2022-09-09T14:18:22;4.85;;;1.75;;
36855;SDS011;22788;51.434;6.786;2022-09-09T14:20:49;2.53;;;1.70;;
36855;SDS011;22788;51.434;6.786;2022-09-09T14:23:16;3.88;;;1.77;;
36855;SDS011;22788;51.434;6.786;2022-09-09T14:25:42;2.38;;;1.45;;
36855;SDS011;22788;51.434;6.786;2022-09-09T14:28:09;4.00;;;1.63;;
36855;SDS011;22788;51.434;6.786;2022-09-09T14:30:36;3.75;;;1.60;;
36855;SDS011;22788;51.434;6.786;2022-09-09T14:33:03;2.13;;;1.50;;
36855;SDS011;22788;51.434;6.786;2022-09-09T14:35:29;3.55;;;1.80;;
36855;SDS011;22788;51.434;6.786;2022-09-09T14:37:56;2.38;;;1.27;;
36855;SDS011;22788;51.434;6.786;2022-09-09T14:40:22;7.72;;;1.90;;
36855;SDS011;22788;51.434;6.786;2022-09-09T14:42:48;3.45;;;2.00;;
36855;SDS011;22788;51.434;6.786;2022-09-09T14:45:14;2.88;;;1.55;;
36855;SDS011;22788;51.434;6.786;2022-09-09T14:47:40;3.83;;;1.67;;
36855;SDS011;22788;51.434;6.786;2022-09-09T14:50:07;3.58;;;1.50;;
36855;SDS011;22788;51.434;6.786;2022-09-09T14:52:33;2.40;;;1.45;;
36855;SDS011;22788;51.434;6.786;2022-09-09T14:55:00;5.03;;;1.83;;
36855;SDS011;22788;51.434;6.786;2022-09-09T14:57:26;2.20;;;1.35;;
36855;SDS011;22788;51.434;6.786;2022-09-09T14:59:52;4.55;;;1.50;;
36855;SDS011;22788;51.434;6.786;2022-09-09T15:02:18;2.20;;;1.17;;
36855;SDS011;22788;51.434;6.786;2022-09-09T15:04:44;3.13;;;1.30;;
36855;SDS011;22788;51.434;6.786;2022-09-09T15:07:10;1.95;;;1.20;;
36855;SDS011;22788;51.434;6.786;2022-09-09T15:09:36;2.75;;;1.20;;
36855;SDS011;22788;51.434;6.786;2022-09-09T15:12:04;1.92;;;1.10;;